createdAt,value
2023-05-10T00:00:40.712Z,3.50
2023-05-10T00:03:11.430Z,4.10
2023-05-10T00:05:38.405Z,3.80
2023-05-10T00:08:05.435Z,4.00
2023-05-10T00:10:32.379Z,4.30
2023-05-10T00:12:59.248Z,3.90
2023-05-10T00:15:26.278Z,4.10
2023-05-10T00:17:53.055Z,3.60
2023-05-10T00:20:20.256Z,4.20
2023-05-10T00:22:47.099Z,4.20
2023-05-10T00:25:13.940Z,4.20
2023-05-10T00:27:40.784Z,4.40
2023-05-10T00:30:08.244Z,3.80
2023-05-10T00:32:35.739Z,4.10
2023-05-10T00:35:02.728Z,4.00
2023-05-10T00:37:29.520Z,4.20
2023-05-10T00:39:56.537Z,3.90
2023-05-10T00:42:23.373Z,4.60
2023-05-10T00:44:53.007Z,3.60
2023-05-10T00:47:19.972Z,3.50
2023-05-10T00:49:47.078Z,3.80
2023-05-10T00:52:14.134Z,3.30
2023-05-10T00:54:42.399Z,3.90
2023-05-10T00:57:09.659Z,3.90
2023-05-10T00:59:36.694Z,3.30
2023-05-10T01:02:03.689Z,3.70
2023-05-10T01:04:33.582Z,3.70
2023-05-10T01:07:00.504Z,3.30
2023-05-10T01:09:28.266Z,4.00
2023-05-10T01:11:55.968Z,3.50
2023-05-10T01:14:23.692Z,3.10
2023-05-10T01:16:50.844Z,3.80
2023-05-10T01:19:22.502Z,3.60
2023-05-10T01:22:28.295Z,3.40
2023-05-10T01:25:10.573Z,3.60
2023-05-10T01:27:37.401Z,3.90
2023-05-10T01:30:28.918Z,4.00
2023-05-10T01:33:05.936Z,3.90
2023-05-10T01:35:54.043Z,3.70
2023-05-10T01:38:40.544Z,3.80
2023-05-10T01:41:19.473Z,3.20
2023-05-10T01:43:53.484Z,3.80
2023-05-10T01:46:29.473Z,3.80
2023-05-10T01:48:59.453Z,3.70
2023-05-10T01:51:36.022Z,4.20
2023-05-10T01:54:05.318Z,4.00
2023-05-10T01:56:35.894Z,4.60
2023-05-10T01:59:07.505Z,4.30
2023-05-10T02:01:37.525Z,4.60
2023-05-10T02:04:06.916Z,4.50
2023-05-10T02:06:34.889Z,4.20
2023-05-10T02:09:03.575Z,4.20
2023-05-10T02:11:32.773Z,4.90
2023-05-10T02:14:00.845Z,4.70
2023-05-10T02:16:31.414Z,5.20
2023-05-10T02:19:00.063Z,4.30
2023-05-10T02:21:28.542Z,5.10
2023-05-10T02:23:56.212Z,4.30
2023-05-10T02:26:25.712Z,4.30
2023-05-10T02:28:53.776Z,4.70
2023-05-10T02:31:22.328Z,5.20
2023-05-10T02:33:50.431Z,6.00
2023-05-10T02:36:20.756Z,6.10
2023-05-10T02:38:50.050Z,7.30
2023-05-10T02:41:17.327Z,5.80
2023-05-10T02:43:45.973Z,5.80
2023-05-10T02:46:13.043Z,5.00
2023-05-10T02:48:40.601Z,5.10
2023-05-10T02:51:08.678Z,5.50
2023-05-10T02:53:38.998Z,5.90
2023-05-10T02:56:13.974Z,5.90
2023-05-10T02:58:41.081Z,5.40
2023-05-10T03:01:11.023Z,5.30
2023-05-10T03:03:38.979Z,4.60
2023-05-10T03:06:05.904Z,5.30
2023-05-10T03:08:32.753Z,5.30
2023-05-10T03:11:27.650Z,4.30
2023-05-10T03:14:11.711Z,4.80
2023-05-10T03:16:52.869Z,5.20
2023-05-10T03:19:40.606Z,5.70
2023-05-10T03:22:11.896Z,5.00
2023-05-10T03:24:41.865Z,5.60
2023-05-10T03:27:10.038Z,5.60
2023-05-10T03:29:38.723Z,6.60
2023-05-10T03:32:05.665Z,5.90
2023-05-10T03:34:32.646Z,5.90
2023-05-10T03:36:59.762Z,5.00
2023-05-10T03:39:28.559Z,5.00
2023-05-10T03:41:58.161Z,4.60
2023-05-10T03:44:24.999Z,4.90
2023-05-10T03:46:52.001Z,5.10
2023-05-10T03:49:19.091Z,5.80
2023-05-10T03:51:45.936Z,5.40
2023-05-10T03:54:12.913Z,4.40
2023-05-10T03:56:39.826Z,5.40
2023-05-10T03:59:09.962Z,5.90
2023-05-10T04:01:36.943Z,5.70
2023-05-10T04:04:04.447Z,5.60
2023-05-10T04:06:32.495Z,5.70
2023-05-10T04:09:05.004Z,5.40
2023-05-10T04:11:31.835Z,5.40
2023-05-10T04:13:58.586Z,4.90
2023-05-10T04:16:25.547Z,5.30
2023-05-10T04:18:52.475Z,4.60
2023-05-10T04:21:19.413Z,4.70
2023-05-10T04:23:46.252Z,4.40
2023-05-10T04:26:13.710Z,5.10
2023-05-10T04:28:40.556Z,5.70
2023-05-10T04:31:09.220Z,5.00
2023-05-10T04:33:36.898Z,4.90
2023-05-10T04:36:04.512Z,5.00
2023-05-10T04:38:31.729Z,5.60
2023-05-10T04:41:07.064Z,6.20
2023-05-10T04:43:34.304Z,5.00
2023-05-10T04:46:01.478Z,5.80
2023-05-10T04:48:28.716Z,5.00
2023-05-10T04:50:55.749Z,5.40
2023-05-10T04:53:23.023Z,5.40
2023-05-10T04:55:49.960Z,5.30
2023-05-10T04:58:16.790Z,5.70
2023-05-10T05:00:44.517Z,5.10
2023-05-10T05:03:11.490Z,5.40
2023-05-10T05:05:38.441Z,4.80
2023-05-10T05:08:05.487Z,4.90
2023-05-10T05:10:32.332Z,4.60
2023-05-10T05:12:59.230Z,5.30
2023-05-10T05:15:26.121Z,5.90
2023-05-10T05:17:53.069Z,6.40
2023-05-10T05:20:20.086Z,5.80
2023-05-10T05:22:46.950Z,5.90
2023-05-10T05:25:14.005Z,6.10
2023-05-10T05:27:40.838Z,6.20
2023-05-10T05:30:08.404Z,6.10
2023-05-10T05:32:35.286Z,6.80
2023-05-10T05:35:02.088Z,5.50
2023-05-10T05:37:28.851Z,4.90
2023-05-10T05:39:55.668Z,7.40
2023-05-10T05:42:22.403Z,5.50
2023-05-10T05:44:49.259Z,5.10
2023-05-10T05:47:16.091Z,5.20
2023-05-10T05:49:46.205Z,5.10
2023-05-10T05:52:13.255Z,4.90
2023-05-10T05:54:40.511Z,5.10
2023-05-10T05:57:08.067Z,5.20
2023-05-10T05:59:35.009Z,5.10
2023-05-10T06:02:01.803Z,5.00
2023-05-10T06:04:28.834Z,4.90
2023-05-10T06:06:55.754Z,5.50
2023-05-10T06:09:24.330Z,4.60
2023-05-10T06:11:51.063Z,4.60
2023-05-10T06:14:17.921Z,5.70
2023-05-10T06:16:44.770Z,4.50
2023-05-10T06:19:11.594Z,5.10
2023-05-10T06:21:38.541Z,4.90
2023-05-10T06:24:07.237Z,4.50
2023-05-10T06:26:34.377Z,5.80
2023-05-10T06:29:01.809Z,5.20
2023-05-10T06:31:28.695Z,5.10
2023-05-10T06:33:56.764Z,5.00
2023-05-10T06:36:25.528Z,40.20
2023-05-10T06:38:52.383Z,6.70
2023-05-10T06:41:19.218Z,5.10
2023-05-10T06:43:46.055Z,5.50
2023-05-10T06:46:12.905Z,4.50
2023-05-10T06:48:39.657Z,4.50
2023-05-10T06:51:06.689Z,3.60
2023-05-10T06:53:33.740Z,6.10
2023-05-10T06:56:00.896Z,5.30
2023-05-10T06:58:28.390Z,5.70
2023-05-10T07:00:55.226Z,2.00
2023-05-10T07:03:22.173Z,1.50
2023-05-10T07:05:49.083Z,3.30
2023-05-10T07:08:15.755Z,1.60
2023-05-10T07:10:43.476Z,1.70
2023-05-10T07:13:11.191Z,1.10
2023-05-10T07:15:38.073Z,1.50
2023-05-10T07:18:06.931Z,1.70
2023-05-10T07:20:33.914Z,1.80
2023-05-10T07:23:01.373Z,1.30
2023-05-10T07:25:28.213Z,1.40
2023-05-10T07:27:55.061Z,1.50
2023-05-10T07:30:22.048Z,1.40
2023-05-10T07:32:48.878Z,1.10
2023-05-10T07:35:16.162Z,1.30
2023-05-10T07:37:43.249Z,1.10
2023-05-10T07:40:10.703Z,1.50
2023-05-10T07:42:37.542Z,1.00
2023-05-10T07:45:05.000Z,1.50
2023-05-10T07:47:31.746Z,1.10
2023-05-10T07:49:58.679Z,1.30
2023-05-10T07:52:25.626Z,1.30
2023-05-10T07:54:52.463Z,1.20
2023-05-10T07:57:19.327Z,1.00
2023-05-10T07:59:46.159Z,1.60
2023-05-10T08:02:13.064Z,1.20
2023-05-10T08:04:40.067Z,1.70
2023-05-10T08:07:07.088Z,0.90
2023-05-10T08:09:34.047Z,1.50
2023-05-10T08:12:00.888Z,1.10
2023-05-10T08:14:29.352Z,1.90
2023-05-10T08:16:56.812Z,2.90
2023-05-10T08:19:24.177Z,1.20
2023-05-10T08:21:51.517Z,1.50
2023-05-10T08:24:18.361Z,1.30
2023-05-10T08:26:45.308Z,1.20
2023-05-10T08:29:12.149Z,1.20
2023-05-10T08:31:38.884Z,1.10
2023-05-10T08:34:05.933Z,1.40
2023-05-10T08:36:32.887Z,1.40
2023-05-10T08:38:59.846Z,1.00
2023-05-10T08:41:27.222Z,1.40
2023-05-10T08:43:55.043Z,1.40
2023-05-10T08:46:23.476Z,1.50
2023-05-10T08:48:52.733Z,1.10
2023-05-10T08:51:24.381Z,1.10
2023-05-10T08:53:52.045Z,1.40
2023-05-10T08:56:20.756Z,1.00
2023-05-10T08:58:47.893Z,1.90
2023-05-10T09:01:17.443Z,1.50
2023-05-10T09:03:46.415Z,1.50
2023-05-10T09:06:14.240Z,1.40
2023-05-10T09:08:43.347Z,1.70
2023-05-10T09:11:11.412Z,1.60
2023-05-10T09:13:38.657Z,1.80
2023-05-10T09:16:17.510Z,1.40
2023-05-10T09:18:47.749Z,1.30
2023-05-10T09:21:14.651Z,1.60
2023-05-10T09:23:48.427Z,1.50
2023-05-10T09:26:16.633Z,1.40
2023-05-10T09:28:55.838Z,1.00
2023-05-10T09:31:24.225Z,1.00
2023-05-10T09:33:51.804Z,1.50
2023-05-10T09:36:18.952Z,1.00
2023-05-10T09:38:47.438Z,1.00
2023-05-10T09:41:23.941Z,1.20
2023-05-10T09:43:55.653Z,0.70
2023-05-10T09:46:26.637Z,0.90
2023-05-10T09:48:53.435Z,2.20
2023-05-10T09:51:22.021Z,1.10
2023-05-10T09:54:08.997Z,0.90
2023-05-10T09:56:37.957Z,1.10
2023-05-10T09:59:06.305Z,0.90
2023-05-10T10:01:34.803Z,23.30
2023-05-10T10:04:06.105Z,0.90
2023-05-10T10:06:40.357Z,1.50
2023-05-10T10:09:08.449Z,0.70
2023-05-10T10:11:36.796Z,1.00
2023-05-10T10:14:03.738Z,0.90
2023-05-10T10:16:31.420Z,0.80
2023-05-10T10:18:58.868Z,0.80
2023-05-10T10:21:26.428Z,1.00
2023-05-10T10:23:53.569Z,0.80
2023-05-10T10:26:22.148Z,0.90
2023-05-10T10:29:30.872Z,1.20
2023-05-10T10:32:21.345Z,0.90
2023-05-10T10:34:48.931Z,0.90
2023-05-10T10:37:15.875Z,1.00
2023-05-10T10:39:42.818Z,1.10
2023-05-10T10:42:09.912Z,1.00
2023-05-10T10:44:38.838Z,0.80
2023-05-10T10:47:24.968Z,1.20
2023-05-10T10:50:04.395Z,1.20
2023-05-10T10:52:33.485Z,1.10
2023-05-10T10:55:10.879Z,0.80
2023-05-10T10:57:50.309Z,1.20
2023-05-10T11:00:27.471Z,1.10
2023-05-10T11:02:56.631Z,0.90
2023-05-10T11:05:36.759Z,1.00
2023-05-10T11:08:28.170Z,0.90
2023-05-10T11:11:01.050Z,0.90
2023-05-10T11:13:30.550Z,1.00
2023-05-10T11:15:59.308Z,1.10
2023-05-10T11:18:26.215Z,1.50
2023-05-10T11:21:00.487Z,0.90
2023-05-10T11:23:40.349Z,1.10
2023-05-10T11:26:12.033Z,1.60
2023-05-10T11:28:43.349Z,1.30
2023-05-10T11:31:10.723Z,1.30
2023-05-10T11:33:48.907Z,1.20
2023-05-10T11:36:18.120Z,1.30
2023-05-10T11:38:45.682Z,1.20
2023-05-10T11:41:13.953Z,1.30
2023-05-10T11:43:41.106Z,1.20
2023-05-10T11:46:10.768Z,1.10
2023-05-10T11:48:42.127Z,1.00
2023-05-10T11:51:10.533Z,0.90
2023-05-10T11:53:38.604Z,1.00
2023-05-10T11:56:08.122Z,1.20
2023-05-10T11:58:36.586Z,1.20
2023-05-10T12:01:04.860Z,1.40
2023-05-10T12:03:32.154Z,1.20
2023-05-10T12:06:01.087Z,1.20
2023-05-10T12:08:31.428Z,1.30
2023-05-10T12:11:10.871Z,1.50
2023-05-10T12:13:42.337Z,1.40
2023-05-10T12:16:19.985Z,1.10
2023-05-10T12:18:54.057Z,1.20
2023-05-10T12:21:22.001Z,1.40
2023-05-10T12:23:54.992Z,12.10
2023-05-10T12:26:23.771Z,1.40
2023-05-10T12:28:50.722Z,1.50
2023-05-10T12:31:17.606Z,1.30
2023-05-10T12:33:45.733Z,2.60
2023-05-10T12:36:16.371Z,1.80
2023-05-10T12:38:45.097Z,1.40
2023-05-10T12:41:17.356Z,1.50
2023-05-10T12:43:48.664Z,1.40
2023-05-10T12:46:18.264Z,1.50
2023-05-10T12:48:46.867Z,1.50
2023-05-10T12:51:16.053Z,1.10
2023-05-10T12:53:45.634Z,1.20
2023-05-10T12:56:13.630Z,1.40
2023-05-10T12:58:41.375Z,1.30
2023-05-10T13:01:08.981Z,1.20
2023-05-10T13:03:36.617Z,1.40
2023-05-10T13:06:06.322Z,1.10
2023-05-10T13:08:34.170Z,1.10
2023-05-10T13:11:02.462Z,2.70
2023-05-10T13:13:29.306Z,1.70
2023-05-10T13:15:56.045Z,8.80
2023-05-10T13:18:22.871Z,5.80
2023-05-10T13:20:50.241Z,9.90
2023-05-10T13:23:17.086Z,1.60
2023-05-10T13:25:43.928Z,1.40
2023-05-10T13:28:10.688Z,1.30
2023-05-10T13:30:37.504Z,1.30
2023-05-10T13:33:04.518Z,1.10
2023-05-10T13:35:31.402Z,1.00
2023-05-10T13:37:58.446Z,1.10
2023-05-10T13:40:25.490Z,1.50
2023-05-10T13:42:53.461Z,1.50
2023-05-10T13:45:20.375Z,1.20
2023-05-10T13:47:47.716Z,1.60
2023-05-10T13:50:14.704Z,1.10
2023-05-10T13:52:41.569Z,1.40
2023-05-10T13:55:09.107Z,1.00
2023-05-10T13:57:39.123Z,1.20
2023-05-10T14:00:06.933Z,1.00
2023-05-10T14:02:34.950Z,1.10
2023-05-10T14:05:01.907Z,1.10
2023-05-10T14:07:28.643Z,1.20
2023-05-10T14:09:55.485Z,1.40
2023-05-10T14:12:22.439Z,1.40
2023-05-10T14:14:49.374Z,1.30
2023-05-10T14:17:16.626Z,1.20
2023-05-10T14:19:43.675Z,1.10
2023-05-10T14:22:10.724Z,1.00
2023-05-10T14:24:38.588Z,1.50
2023-05-10T14:27:06.349Z,1.50
2023-05-10T14:29:33.500Z,1.30
2023-05-10T14:32:00.687Z,1.30
2023-05-10T14:34:27.492Z,1.20
2023-05-10T14:36:54.345Z,1.00
2023-05-10T14:39:21.876Z,1.30
2023-05-10T14:41:49.147Z,1.50
2023-05-10T14:44:15.987Z,1.50
2023-05-10T14:46:43.145Z,1.60
2023-05-10T14:49:09.982Z,2.40
2023-05-10T14:51:37.433Z,1.20
2023-05-10T14:54:04.387Z,1.50
2023-05-10T14:56:31.631Z,1.60
2023-05-10T14:58:58.484Z,1.50
2023-05-10T15:01:25.901Z,1.40
2023-05-10T15:03:53.435Z,1.70
2023-05-10T15:06:30.680Z,1.50
2023-05-10T15:08:57.514Z,1.10
2023-05-10T15:11:24.456Z,1.40
2023-05-10T15:13:51.202Z,1.30
2023-05-10T15:16:18.126Z,1.60
2023-05-10T15:18:45.379Z,1.70
2023-05-10T15:21:12.539Z,1.10
2023-05-10T15:23:39.488Z,1.30
2023-05-10T15:26:06.428Z,1.10
2023-05-10T15:28:34.282Z,1.40
2023-05-10T15:31:01.473Z,2.80
2023-05-10T15:33:29.208Z,6.80
2023-05-10T15:35:56.167Z,7.00
2023-05-10T15:38:23.105Z,5.30
2023-05-10T15:40:49.966Z,4.30
2023-05-10T15:43:16.788Z,3.50
2023-05-10T15:45:43.730Z,2.30
2023-05-10T15:48:10.670Z,2.00
2023-05-10T15:50:37.724Z,2.30
2023-05-10T15:53:04.567Z,2.10
2023-05-10T15:55:31.823Z,2.20
2023-05-10T15:57:58.663Z,2.10
2023-05-10T16:00:25.514Z,2.90
2023-05-10T16:02:53.567Z,2.50
2023-05-10T16:05:20.668Z,2.10
2023-05-10T16:07:48.694Z,2.60
2023-05-10T16:10:15.856Z,2.00
2023-05-10T16:12:42.804Z,1.60
2023-05-10T16:15:10.250Z,1.80
2023-05-10T16:17:37.147Z,1.60
2023-05-10T16:20:05.470Z,1.40
2023-05-10T16:22:32.406Z,1.90
2023-05-10T16:24:59.565Z,1.80
2023-05-10T16:27:29.495Z,4.50
2023-05-10T16:29:56.215Z,2.00
2023-05-10T16:32:23.239Z,2.40
2023-05-10T16:34:50.113Z,2.30
2023-05-10T16:37:17.047Z,3.20
2023-05-10T16:39:43.989Z,2.40
2023-05-10T16:42:11.012Z,2.90
2023-05-10T16:44:38.084Z,2.70
2023-05-10T16:47:04.956Z,3.60
2023-05-10T16:49:31.769Z,3.30
2023-05-10T16:51:59.338Z,2.70
2023-05-10T16:54:26.397Z,3.90
2023-05-10T16:56:54.039Z,3.60
2023-05-10T16:59:20.952Z,3.90
2023-05-10T17:01:47.834Z,3.90
2023-05-10T17:04:16.143Z,3.60
2023-05-10T17:06:43.395Z,3.80
2023-05-10T17:09:11.424Z,3.50
2023-05-10T17:11:38.782Z,4.50
2023-05-10T17:14:05.729Z,4.70
2023-05-10T17:16:32.624Z,3.90
2023-05-10T17:18:59.569Z,3.50
2023-05-10T17:21:26.970Z,3.10
2023-05-10T17:23:53.810Z,3.10
2023-05-10T17:26:22.300Z,2.80
2023-05-10T17:28:50.327Z,3.00
2023-05-10T17:31:17.954Z,2.70
2023-05-10T17:33:44.771Z,4.00
2023-05-10T17:36:12.219Z,3.60
2023-05-10T17:38:38.973Z,3.90
2023-05-10T17:41:06.009Z,3.60
2023-05-10T17:43:32.851Z,3.00
2023-05-10T17:45:59.732Z,3.90
2023-05-10T17:48:26.637Z,4.00
2023-05-10T17:50:53.597Z,7.30
2023-05-10T17:53:20.631Z,7.00
2023-05-10T17:55:47.670Z,6.00
2023-05-10T17:58:14.827Z,6.50
2023-05-10T18:00:41.660Z,6.40
2023-05-10T18:03:08.479Z,6.30
2023-05-10T18:05:38.754Z,6.50
2023-05-10T18:08:06.795Z,9.20
2023-05-10T18:10:33.738Z,9.80
2023-05-10T18:13:01.925Z,9.30
2023-05-10T18:15:28.757Z,9.30
2023-05-10T18:17:56.266Z,8.90
2023-05-10T18:20:23.200Z,9.20
2023-05-10T18:22:50.104Z,10.10
2023-05-10T18:25:17.565Z,11.30
2023-05-10T18:27:44.723Z,10.80
2023-05-10T18:30:12.633Z,10.90
2023-05-10T18:32:40.474Z,11.40
2023-05-10T18:35:08.109Z,10.20
2023-05-10T18:37:35.969Z,10.10
2023-05-10T18:40:04.450Z,8.40
2023-05-10T18:42:31.495Z,6.40
2023-05-10T18:44:58.445Z,5.60
2023-05-10T18:47:26.223Z,5.00
2023-05-10T18:49:53.150Z,5.00
2023-05-10T18:52:20.002Z,4.70
2023-05-10T18:54:47.349Z,7.60
2023-05-10T18:57:14.184Z,7.50
2023-05-10T18:59:41.236Z,6.40
2023-05-10T19:02:08.202Z,10.30
2023-05-10T19:04:35.249Z,11.10
2023-05-10T19:07:02.996Z,12.90
2023-05-10T19:09:30.154Z,10.00
2023-05-10T19:11:57.088Z,11.30
2023-05-10T19:14:24.954Z,12.00
2023-05-10T19:16:53.589Z,11.70
2023-05-10T19:19:20.899Z,10.90
2023-05-10T19:21:47.838Z,10.20
2023-05-10T19:24:14.882Z,11.80
2023-05-10T19:26:41.744Z,11.80
2023-05-10T19:29:08.989Z,11.20
2023-05-10T19:31:35.875Z,10.00
2023-05-10T19:34:05.985Z,9.50
2023-05-10T19:36:32.877Z,9.90
2023-05-10T19:38:59.822Z,8.90
2023-05-10T19:41:26.786Z,7.90
2023-05-10T19:43:53.814Z,7.40
2023-05-10T19:46:20.660Z,6.90
2023-05-10T19:48:47.606Z,5.80
2023-05-10T19:51:15.275Z,9.20
2023-05-10T19:53:44.224Z,10.10
2023-05-10T19:56:12.121Z,11.00
2023-05-10T19:58:39.900Z,10.70
2023-05-10T20:01:07.163Z,11.20
2023-05-10T20:03:35.626Z,10.10
2023-05-10T20:06:03.386Z,9.10
2023-05-10T20:08:30.534Z,8.10
2023-05-10T20:10:58.616Z,8.50
2023-05-10T20:13:25.765Z,6.50
2023-05-10T20:15:59.265Z,4.80
2023-05-10T20:18:26.787Z,3.00
2023-05-10T20:20:54.788Z,3.40
2023-05-10T20:23:22.484Z,4.00
2023-05-10T20:25:49.704Z,3.90
2023-05-10T20:28:26.707Z,3.50
2023-05-10T20:30:54.764Z,3.90
2023-05-10T20:33:22.408Z,4.20
2023-05-10T20:35:50.815Z,4.50
2023-05-10T20:38:17.831Z,5.30
2023-05-10T20:40:44.997Z,4.70
2023-05-10T20:43:12.134Z,5.00
2023-05-10T20:45:39.080Z,7.60
2023-05-10T20:48:06.281Z,7.30
2023-05-10T20:50:33.272Z,7.10
2023-05-10T20:53:00.726Z,6.00
2023-05-10T20:55:28.113Z,6.60
2023-05-10T20:57:55.042Z,6.30
2023-05-10T21:00:21.792Z,5.40
2023-05-10T21:02:48.766Z,6.20
2023-05-10T21:05:17.112Z,5.20
2023-05-10T21:07:44.035Z,5.60
2023-05-10T21:10:11.496Z,5.20
2023-05-10T21:12:38.747Z,5.90
2023-05-10T21:15:06.302Z,4.90
2023-05-10T21:17:33.106Z,5.40
2023-05-10T21:19:59.897Z,4.80
2023-05-10T21:22:26.726Z,4.60
2023-05-10T21:24:53.471Z,4.10
2023-05-10T21:27:20.535Z,5.30
2023-05-10T21:29:47.373Z,4.10
2023-05-10T21:32:14.414Z,3.70
2023-05-10T21:34:41.358Z,4.10
2023-05-10T21:37:08.602Z,4.40
2023-05-10T21:39:35.551Z,4.60
2023-05-10T21:42:03.141Z,3.90
2023-05-10T21:44:31.179Z,4.40
2023-05-10T21:46:57.918Z,4.60
2023-05-10T21:49:24.971Z,4.70
2023-05-10T21:51:51.811Z,4.10
2023-05-10T21:54:18.756Z,5.40
2023-05-10T21:56:45.493Z,4.90
2023-05-10T21:59:13.127Z,4.70
2023-05-10T22:01:40.907Z,5.00
2023-05-10T22:04:07.860Z,4.20
2023-05-10T22:06:35.111Z,3.80
2023-05-10T22:09:02.059Z,4.30
2023-05-10T22:11:28.899Z,4.70
2023-05-10T22:13:55.847Z,4.50
2023-05-10T22:16:22.738Z,5.60
2023-05-10T22:18:50.092Z,5.00
2023-05-10T22:21:17.192Z,5.00
2023-05-10T22:23:44.034Z,5.10
2023-05-10T22:26:11.375Z,4.90
2023-05-10T22:28:38.174Z,5.00
2023-05-10T22:31:10.116Z,4.50
2023-05-10T22:33:37.139Z,5.30
2023-05-10T22:36:04.801Z,5.70
2023-05-10T22:38:31.739Z,5.50
2023-05-10T22:40:58.590Z,5.80
2023-05-10T22:43:25.419Z,5.70
2023-05-10T22:45:52.681Z,5.10
2023-05-10T22:48:20.445Z,5.50
2023-05-10T22:50:47.388Z,4.90
2023-05-10T22:53:14.126Z,5.10
2023-05-10T22:55:41.384Z,5.10
2023-05-10T22:58:09.038Z,4.70
2023-05-10T23:00:36.296Z,5.10
2023-05-10T23:03:04.500Z,4.70
2023-05-10T23:05:31.611Z,4.60
2023-05-10T23:07:58.467Z,4.00
2023-05-10T23:10:25.305Z,4.30
2023-05-10T23:12:52.170Z,4.10
2023-05-10T23:15:18.990Z,3.60
2023-05-10T23:17:46.118Z,4.10
2023-05-10T23:20:13.283Z,4.50
2023-05-10T23:22:40.235Z,4.10
2023-05-10T23:25:07.887Z,4.60
2023-05-10T23:27:34.736Z,5.00
2023-05-10T23:30:01.702Z,4.70
2023-05-10T23:32:28.544Z,4.20
2023-05-10T23:34:55.380Z,4.20
2023-05-10T23:37:22.202Z,4.30
2023-05-10T23:39:49.049Z,4.10
2023-05-10T23:42:15.990Z,3.50
2023-05-10T23:44:42.818Z,3.70
2023-05-10T23:47:09.575Z,3.80
2023-05-10T23:49:37.542Z,4.00
2023-05-10T23:52:04.284Z,4.20
2023-05-10T23:54:31.020Z,3.90
2023-05-10T23:56:57.765Z,4.10
2023-05-10T23:59:24.610Z,4.40
